sensor_id;sensor_type;location;lat;lon;timestamp;P1;durP1;ratioP1;P2;durP2;ratioP2
46589;SDS011;32313;48.722;9.362;2022-11-27T00:00:52;43.17;;;37.07;;
46589;SDS011;32313;48.722;9.362;2022-11-27T00:03:18;52.40;;;43.00;;
46589;SDS011;32313;48.722;9.362;2022-11-27T00:05:50;41.03;;;36.47;;
46589;SDS011;32313;48.722;9.362;2022-11-27T00:08:20;39.33;;;35.07;;
46589;SDS011;32313;48.722;9.362;2022-11-27T00:10:46;47.57;;;38.30;;
46589;SDS011;32313;48.722;9.362;2022-11-27T00:13:12;39.43;;;34.90;;
46589;SDS011;32313;48.722;9.362;2022-11-27T00:15:38;50.17;;;41.23;;
46589;SDS011;32313;48.722;9.362;2022-11-27T00:18:03;47.10;;;41.27;;
46589;SDS011;32313;48.722;9.362;2022-11-27T00:20:29;50.00;;;41.43;;
46589;SDS011;32313;48.722;9.362;2022-11-27T00:22:55;60.43;;;47.17;;
46589;SDS011;32313;48.722;9.362;2022-11-27T00:25:20;47.50;;;42.33;;
46589;SDS011;32313;48.722;9.362;2022-11-27T00:27:46;41.97;;;37.57;;
46589;SDS011;32313;48.722;9.362;2022-11-27T00:30:12;45.37;;;38.87;;
46589;SDS011;32313;48.722;9.362;2022-11-27T00:32:38;45.53;;;39.37;;
46589;SDS011;32313;48.722;9.362;2022-11-27T00:35:04;41.83;;;37.20;;
46589;SDS011;32313;48.722;9.362;2022-11-27T00:37:30;36.37;;;32.47;;
46589;SDS011;32313;48.722;9.362;2022-11-27T00:39:55;45.80;;;39.20;;
46589;SDS011;32313;48.722;9.362;2022-11-27T00:42:21;54.60;;;39.97;;
46589;SDS011;32313;48.722;9.362;2022-11-27T00:44:46;50.70;;;39.20;;
46589;SDS011;32313;48.722;9.362;2022-11-27T00:47:12;49.73;;;39.23;;
46589;SDS011;32313;48.722;9.362;2022-11-27T00:49:38;60.13;;;43.20;;
46589;SDS011;32313;48.722;9.362;2022-11-27T00:52:03;38.73;;;34.60;;
46589;SDS011;32313;48.722;9.362;2022-11-27T00:54:29;50.63;;;38.80;;
46589;SDS011;32313;48.722;9.362;2022-11-27T00:56:55;53.23;;;42.23;;
46589;SDS011;32313;48.722;9.362;2022-11-27T00:59:20;56.63;;;46.03;;
46589;SDS011;32313;48.722;9.362;2022-11-27T01:01:46;52.13;;;41.20;;
46589;SDS011;32313;48.722;9.362;2022-11-27T01:04:13;64.63;;;44.80;;
46589;SDS011;32313;48.722;9.362;2022-11-27T01:06:40;52.63;;;39.73;;
46589;SDS011;32313;48.722;9.362;2022-11-27T01:09:07;50.67;;;38.87;;
46589;SDS011;32313;48.722;9.362;2022-11-27T01:11:34;53.93;;;41.00;;
46589;SDS011;32313;48.722;9.362;2022-11-27T01:14:01;50.40;;;35.67;;
46589;SDS011;32313;48.722;9.362;2022-11-27T01:16:33;53.33;;;38.40;;
46589;SDS011;32313;48.722;9.362;2022-11-27T01:18:59;50.40;;;36.63;;
46589;SDS011;32313;48.722;9.362;2022-11-27T01:21:27;62.43;;;40.97;;
46589;SDS011;32313;48.722;9.362;2022-11-27T01:23:54;69.63;;;43.37;;
46589;SDS011;32313;48.722;9.362;2022-11-27T01:26:20;57.10;;;39.63;;
46589;SDS011;32313;48.722;9.362;2022-11-27T01:28:46;39.87;;;34.43;;
46589;SDS011;32313;48.722;9.362;2022-11-27T01:31:16;40.43;;;34.27;;
46589;SDS011;32313;48.722;9.362;2022-11-27T01:33:44;54.23;;;40.27;;
46589;SDS011;32313;48.722;9.362;2022-11-27T01:36:11;52.03;;;38.30;;
46589;SDS011;32313;48.722;9.362;2022-11-27T01:38:39;60.70;;;41.43;;
46589;SDS011;32313;48.722;9.362;2022-11-27T01:41:21;75.17;;;45.87;;
46589;SDS011;32313;48.722;9.362;2022-11-27T01:43:54;63.53;;;40.27;;
46589;SDS011;32313;48.722;9.362;2022-11-27T01:46:38;67.60;;;40.30;;
46589;SDS011;32313;48.722;9.362;2022-11-27T01:51:33;59.37;;;40.93;;
46589;SDS011;32313;48.722;9.362;2022-11-27T01:54:06;56.13;;;37.20;;
46589;SDS011;32313;48.722;9.362;2022-11-27T01:56:33;62.83;;;40.93;;
46589;SDS011;32313;48.722;9.362;2022-11-27T01:58:59;48.07;;;35.90;;
46589;SDS011;32313;48.722;9.362;2022-11-27T02:01:26;44.70;;;34.57;;
46589;SDS011;32313;48.722;9.362;2022-11-27T02:03:52;44.57;;;33.53;;
46589;SDS011;32313;48.722;9.362;2022-11-27T02:06:22;44.70;;;34.33;;
46589;SDS011;32313;48.722;9.362;2022-11-27T02:08:49;55.23;;;32.63;;
46589;SDS011;32313;48.722;9.362;2022-11-27T02:11:26;46.60;;;32.90;;
46589;SDS011;32313;48.722;9.362;2022-11-27T02:17:17;73.80;;;36.23;;
46589;SDS011;32313;48.722;9.362;2022-11-27T02:22:51;62.70;;;37.07;;
46589;SDS011;32313;48.722;9.362;2022-11-27T02:26:16;57.37;;;34.70;;
46589;SDS011;32313;48.722;9.362;2022-11-27T02:28:56;75.63;;;37.73;;
46589;SDS011;32313;48.722;9.362;2022-11-27T02:31:27;117.70;;;45.73;;
46589;SDS011;32313;48.722;9.362;2022-11-27T02:34:04;104.23;;;41.20;;
46589;SDS011;32313;48.722;9.362;2022-11-27T02:36:36;42.53;;;30.27;;
46589;SDS011;32313;48.722;9.362;2022-11-27T02:39:06;36.40;;;29.63;;
46589;SDS011;32313;48.722;9.362;2022-11-27T02:41:43;43.47;;;32.83;;
46589;SDS011;32313;48.722;9.362;2022-11-27T02:44:13;40.13;;;32.37;;
46589;SDS011;32313;48.722;9.362;2022-11-27T02:46:41;46.60;;;37.07;;
46589;SDS011;32313;48.722;9.362;2022-11-27T02:49:08;41.13;;;32.20;;
46589;SDS011;32313;48.722;9.362;2022-11-27T02:51:38;36.00;;;30.27;;
46589;SDS011;32313;48.722;9.362;2022-11-27T02:54:08;47.03;;;33.00;;
46589;SDS011;32313;48.722;9.362;2022-11-27T02:56:37;37.93;;;31.83;;
46589;SDS011;32313;48.722;9.362;2022-11-27T02:59:06;43.33;;;29.90;;
46589;SDS011;32313;48.722;9.362;2022-11-27T03:01:41;40.17;;;30.93;;
46589;SDS011;32313;48.722;9.362;2022-11-27T03:04:21;42.67;;;31.10;;
46589;SDS011;32313;48.722;9.362;2022-11-27T03:06:54;51.40;;;32.87;;
46589;SDS011;32313;48.722;9.362;2022-11-27T03:11:53;43.03;;;30.70;;
46589;SDS011;32313;48.722;9.362;2022-11-27T03:14:20;55.97;;;32.90;;
46589;SDS011;32313;48.722;9.362;2022-11-27T03:19:43;64.93;;;34.50;;
46589;SDS011;32313;48.722;9.362;2022-11-27T03:22:16;50.17;;;32.37;;
46589;SDS011;32313;48.722;9.362;2022-11-27T03:24:42;67.63;;;37.60;;
46589;SDS011;32313;48.722;9.362;2022-11-27T03:27:08;88.20;;;33.93;;
46589;SDS011;32313;48.722;9.362;2022-11-27T03:29:56;77.87;;;39.90;;
46589;SDS011;32313;48.722;9.362;2022-11-27T03:32:24;116.83;;;44.57;;
46589;SDS011;32313;48.722;9.362;2022-11-27T03:34:51;59.17;;;33.07;;
46589;SDS011;32313;48.722;9.362;2022-11-27T03:37:17;40.83;;;30.40;;
46589;SDS011;32313;48.722;9.362;2022-11-27T03:39:43;82.43;;;33.83;;
46589;SDS011;32313;48.722;9.362;2022-11-27T03:45:16;60.73;;;32.60;;
46589;SDS011;32313;48.722;9.362;2022-11-27T04:01:19;99.23;;;40.80;;
46589;SDS011;32313;48.722;9.362;2022-11-27T04:03:49;109.23;;;39.50;;
46589;SDS011;32313;48.722;9.362;2022-11-27T04:06:14;69.07;;;38.03;;
46589;SDS011;32313;48.722;9.362;2022-11-27T04:08:40;85.67;;;37.43;;
46589;SDS011;32313;48.722;9.362;2022-11-27T04:11:07;111.53;;;45.57;;
46589;SDS011;32313;48.722;9.362;2022-11-27T04:13:33;42.47;;;31.53;;
46589;SDS011;32313;48.722;9.362;2022-11-27T04:15:59;62.87;;;39.13;;
46589;SDS011;32313;48.722;9.362;2022-11-27T04:18:26;82.93;;;41.03;;
46589;SDS011;32313;48.722;9.362;2022-11-27T04:20:51;44.77;;;30.23;;
46589;SDS011;32313;48.722;9.362;2022-11-27T04:23:17;48.87;;;33.27;;
46589;SDS011;32313;48.722;9.362;2022-11-27T04:25:43;87.93;;;37.50;;
46589;SDS011;32313;48.722;9.362;2022-11-27T04:28:08;104.07;;;35.93;;
46589;SDS011;32313;48.722;9.362;2022-11-27T04:30:34;120.93;;;35.77;;
46589;SDS011;32313;48.722;9.362;2022-11-27T04:33:00;47.33;;;26.33;;
46589;SDS011;32313;48.722;9.362;2022-11-27T04:35:25;44.27;;;27.87;;
46589;SDS011;32313;48.722;9.362;2022-11-27T04:37:51;40.67;;;26.40;;
46589;SDS011;32313;48.722;9.362;2022-11-27T04:40:17;63.73;;;29.10;;
46589;SDS011;32313;48.722;9.362;2022-11-27T04:42:43;96.63;;;31.67;;
46589;SDS011;32313;48.722;9.362;2022-11-27T04:45:08;106.83;;;34.13;;
46589;SDS011;32313;48.722;9.362;2022-11-27T04:47:34;110.37;;;33.07;;
46589;SDS011;32313;48.722;9.362;2022-11-27T04:50:00;74.23;;;30.70;;
46589;SDS011;32313;48.722;9.362;2022-11-27T04:52:26;58.17;;;28.63;;
46589;SDS011;32313;48.722;9.362;2022-11-27T04:54:51;85.20;;;31.40;;
46589;SDS011;32313;48.722;9.362;2022-11-27T04:57:17;59.70;;;29.00;;
46589;SDS011;32313;48.722;9.362;2022-11-27T04:59:43;86.00;;;30.33;;
46589;SDS011;32313;48.722;9.362;2022-11-27T05:02:08;55.13;;;28.63;;
46589;SDS011;32313;48.722;9.362;2022-11-27T05:04:34;51.13;;;27.43;;
46589;SDS011;32313;48.722;9.362;2022-11-27T05:07:00;96.07;;;32.97;;
46589;SDS011;32313;48.722;9.362;2022-11-27T05:09:25;40.67;;;25.77;;
46589;SDS011;32313;48.722;9.362;2022-11-27T05:11:51;42.03;;;26.20;;
46589;SDS011;32313;48.722;9.362;2022-11-27T05:14:17;42.07;;;26.27;;
46589;SDS011;32313;48.722;9.362;2022-11-27T05:16:54;43.43;;;25.67;;
46589;SDS011;32313;48.722;9.362;2022-11-27T05:19:22;126.80;;;33.07;;
46589;SDS011;32313;48.722;9.362;2022-11-27T05:21:50;87.67;;;34.57;;
46589;SDS011;32313;48.722;9.362;2022-11-27T05:24:17;60.07;;;28.20;;
46589;SDS011;32313;48.722;9.362;2022-11-27T05:26:44;82.33;;;30.70;;
46589;SDS011;32313;48.722;9.362;2022-11-27T05:29:13;32.83;;;24.27;;
46589;SDS011;32313;48.722;9.362;2022-11-27T05:31:39;118.23;;;36.23;;
46589;SDS011;32313;48.722;9.362;2022-11-27T05:34:06;50.23;;;30.60;;
46589;SDS011;32313;48.722;9.362;2022-11-27T05:36:32;62.47;;;30.73;;
46589;SDS011;32313;48.722;9.362;2022-11-27T05:38:59;29.23;;;23.83;;
46589;SDS011;32313;48.722;9.362;2022-11-27T05:41:25;88.47;;;32.53;;
46589;SDS011;32313;48.722;9.362;2022-11-27T05:43:51;36.33;;;26.00;;
46589;SDS011;32313;48.722;9.362;2022-11-27T05:46:18;55.03;;;30.00;;
46589;SDS011;32313;48.722;9.362;2022-11-27T05:48:45;91.40;;;31.07;;
46589;SDS011;32313;48.722;9.362;2022-11-27T05:51:11;46.37;;;28.90;;
46589;SDS011;32313;48.722;9.362;2022-11-27T05:53:38;66.30;;;31.17;;
46589;SDS011;32313;48.722;9.362;2022-11-27T05:56:04;72.60;;;29.73;;
46589;SDS011;32313;48.722;9.362;2022-11-27T05:58:35;50.53;;;26.50;;
46589;SDS011;32313;48.722;9.362;2022-11-27T06:01:02;67.13;;;30.20;;
46589;SDS011;32313;48.722;9.362;2022-11-27T06:03:28;41.20;;;25.93;;
46589;SDS011;32313;48.722;9.362;2022-11-27T06:05:54;57.17;;;28.97;;
46589;SDS011;32313;48.722;9.362;2022-11-27T06:08:19;106.80;;;30.73;;
46589;SDS011;32313;48.722;9.362;2022-11-27T06:10:45;58.27;;;29.63;;
46589;SDS011;32313;48.722;9.362;2022-11-27T06:13:12;77.70;;;31.63;;
46589;SDS011;32313;48.722;9.362;2022-11-27T06:15:38;89.27;;;39.47;;
46589;SDS011;32313;48.722;9.362;2022-11-27T06:18:05;77.13;;;36.13;;
46589;SDS011;32313;48.722;9.362;2022-11-27T06:20:31;107.50;;;36.67;;
46589;SDS011;32313;48.722;9.362;2022-11-27T06:22:57;81.63;;;33.70;;
46589;SDS011;32313;48.722;9.362;2022-11-27T06:25:23;121.23;;;38.37;;
46589;SDS011;32313;48.722;9.362;2022-11-27T06:27:49;82.33;;;32.27;;
46589;SDS011;32313;48.722;9.362;2022-11-27T06:30:15;48.53;;;29.03;;
46589;SDS011;32313;48.722;9.362;2022-11-27T06:32:41;70.57;;;28.33;;
46589;SDS011;32313;48.722;9.362;2022-11-27T06:35:07;46.83;;;25.87;;
46589;SDS011;32313;48.722;9.362;2022-11-27T06:37:33;59.17;;;28.43;;
46589;SDS011;32313;48.722;9.362;2022-11-27T06:39:59;83.47;;;28.67;;
46589;SDS011;32313;48.722;9.362;2022-11-27T06:42:27;78.97;;;31.77;;
46589;SDS011;32313;48.722;9.362;2022-11-27T06:44:53;33.10;;;24.50;;
46589;SDS011;32313;48.722;9.362;2022-11-27T06:47:19;37.63;;;25.27;;
46589;SDS011;32313;48.722;9.362;2022-11-27T06:49:44;84.10;;;31.00;;
46589;SDS011;32313;48.722;9.362;2022-11-27T06:52:10;44.90;;;26.63;;
46589;SDS011;32313;48.722;9.362;2022-11-27T06:54:36;39.83;;;26.73;;
46589;SDS011;32313;48.722;9.362;2022-11-27T06:57:01;42.10;;;24.77;;
46589;SDS011;32313;48.722;9.362;2022-11-27T06:59:27;51.63;;;27.90;;
46589;SDS011;32313;48.722;9.362;2022-11-27T07:01:53;49.33;;;27.50;;
46589;SDS011;32313;48.722;9.362;2022-11-27T07:04:18;42.73;;;24.07;;
46589;SDS011;32313;48.722;9.362;2022-11-27T07:06:44;41.17;;;26.20;;
46589;SDS011;32313;48.722;9.362;2022-11-27T07:09:10;38.33;;;26.83;;
46589;SDS011;32313;48.722;9.362;2022-11-27T07:11:37;53.13;;;28.60;;
46589;SDS011;32313;48.722;9.362;2022-11-27T07:14:03;38.37;;;25.40;;
46589;SDS011;32313;48.722;9.362;2022-11-27T07:16:31;40.37;;;29.13;;
46589;SDS011;32313;48.722;9.362;2022-11-27T07:19:05;32.77;;;24.70;;
46589;SDS011;32313;48.722;9.362;2022-11-27T07:21:32;38.70;;;29.77;;
46589;SDS011;32313;48.722;9.362;2022-11-27T07:24:00;46.67;;;30.03;;
46589;SDS011;32313;48.722;9.362;2022-11-27T07:26:26;32.57;;;25.97;;
46589;SDS011;32313;48.722;9.362;2022-11-27T07:28:53;27.43;;;23.20;;
46589;SDS011;32313;48.722;9.362;2022-11-27T07:31:20;41.30;;;24.27;;
46589;SDS011;32313;48.722;9.362;2022-11-27T07:33:48;57.10;;;31.90;;
46589;SDS011;32313;48.722;9.362;2022-11-27T07:36:20;38.10;;;26.90;;
46589;SDS011;32313;48.722;9.362;2022-11-27T07:38:47;28.80;;;23.50;;
46589;SDS011;32313;48.722;9.362;2022-11-27T07:41:13;33.03;;;23.60;;
46589;SDS011;32313;48.722;9.362;2022-11-27T07:43:40;31.43;;;25.13;;
46589;SDS011;32313;48.722;9.362;2022-11-27T07:46:15;29.70;;;23.67;;
46589;SDS011;32313;48.722;9.362;2022-11-27T07:48:42;29.70;;;26.07;;
46589;SDS011;32313;48.722;9.362;2022-11-27T07:51:08;57.50;;;28.60;;
46589;SDS011;32313;48.722;9.362;2022-11-27T07:53:35;35.03;;;25.20;;
46589;SDS011;32313;48.722;9.362;2022-11-27T07:56:05;38.63;;;28.77;;
46589;SDS011;32313;48.722;9.362;2022-11-27T07:58:31;30.87;;;24.70;;
46589;SDS011;32313;48.722;9.362;2022-11-27T08:00:57;38.23;;;28.87;;
46589;SDS011;32313;48.722;9.362;2022-11-27T08:03:23;36.63;;;27.23;;
46589;SDS011;32313;48.722;9.362;2022-11-27T08:05:49;41.40;;;28.90;;
46589;SDS011;32313;48.722;9.362;2022-11-27T08:08:15;31.17;;;27.10;;
46589;SDS011;32313;48.722;9.362;2022-11-27T08:10:41;29.67;;;26.13;;
46589;SDS011;32313;48.722;9.362;2022-11-27T08:13:07;35.27;;;26.87;;
46589;SDS011;32313;48.722;9.362;2022-11-27T08:15:33;41.03;;;25.20;;
46589;SDS011;32313;48.722;9.362;2022-11-27T08:18:00;42.07;;;27.87;;
46589;SDS011;32313;48.722;9.362;2022-11-27T08:20:26;40.93;;;28.33;;
46589;SDS011;32313;48.722;9.362;2022-11-27T08:22:52;32.27;;;25.13;;
46589;SDS011;32313;48.722;9.362;2022-11-27T08:25:18;32.00;;;22.50;;
46589;SDS011;32313;48.722;9.362;2022-11-27T08:27:43;33.60;;;24.77;;
46589;SDS011;32313;48.722;9.362;2022-11-27T08:30:12;26.77;;;22.53;;
46589;SDS011;32313;48.722;9.362;2022-11-27T08:32:39;24.90;;;20.97;;
46589;SDS011;32313;48.722;9.362;2022-11-27T08:35:06;46.53;;;25.67;;
46589;SDS011;32313;48.722;9.362;2022-11-27T08:37:32;30.70;;;25.13;;
46589;SDS011;32313;48.722;9.362;2022-11-27T08:39:57;33.90;;;26.67;;
46589;SDS011;32313;48.722;9.362;2022-11-27T08:42:23;33.97;;;25.07;;
46589;SDS011;32313;48.722;9.362;2022-11-27T08:44:49;76.07;;;29.67;;
46589;SDS011;32313;48.722;9.362;2022-11-27T08:47:14;35.73;;;23.53;;
46589;SDS011;32313;48.722;9.362;2022-11-27T08:49:41;263.43;;;50.10;;
46589;SDS011;32313;48.722;9.362;2022-11-27T08:52:08;28.30;;;22.00;;
46589;SDS011;32313;48.722;9.362;2022-11-27T08:54:36;41.27;;;23.67;;
46589;SDS011;32313;48.722;9.362;2022-11-27T08:57:02;115.30;;;31.53;;
46589;SDS011;32313;48.722;9.362;2022-11-27T08:59:28;55.87;;;24.10;;
46589;SDS011;32313;48.722;9.362;2022-11-27T09:01:54;162.43;;;36.83;;
46589;SDS011;32313;48.722;9.362;2022-11-27T09:04:20;20.87;;;18.97;;
46589;SDS011;32313;48.722;9.362;2022-11-27T09:06:45;24.37;;;20.20;;
46589;SDS011;32313;48.722;9.362;2022-11-27T09:09:12;61.70;;;25.73;;
46589;SDS011;32313;48.722;9.362;2022-11-27T09:11:39;314.30;;;56.10;;
46589;SDS011;32313;48.722;9.362;2022-11-27T09:14:05;24.00;;;21.47;;
46589;SDS011;32313;48.722;9.362;2022-11-27T09:16:32;32.93;;;25.83;;
46589;SDS011;32313;48.722;9.362;2022-11-27T09:18:59;39.20;;;24.70;;
46589;SDS011;32313;48.722;9.362;2022-11-27T09:21:25;24.20;;;21.60;;
46589;SDS011;32313;48.722;9.362;2022-11-27T09:23:56;249.37;;;52.37;;
46589;SDS011;32313;48.722;9.362;2022-11-27T09:26:23;25.93;;;23.17;;
46589;SDS011;32313;48.722;9.362;2022-11-27T09:28:50;518.03;;;74.27;;
46589;SDS011;32313;48.722;9.362;2022-11-27T09:31:17;1047.77;;;128.57;;
46589;SDS011;32313;48.722;9.362;2022-11-27T09:33:43;26.20;;;21.30;;
46589;SDS011;32313;48.722;9.362;2022-11-27T09:36:14;211.60;;;40.43;;
46589;SDS011;32313;48.722;9.362;2022-11-27T09:38:41;30.97;;;22.10;;
46589;SDS011;32313;48.722;9.362;2022-11-27T09:43:44;20.83;;;18.83;;
46589;SDS011;32313;48.722;9.362;2022-11-27T09:46:30;21.33;;;19.23;;
46589;SDS011;32313;48.722;9.362;2022-11-27T09:49:02;25.30;;;22.67;;
46589;SDS011;32313;48.722;9.362;2022-11-27T09:51:52;20.70;;;18.60;;
46589;SDS011;32313;48.722;9.362;2022-11-27T09:57:13;20.53;;;18.40;;
46589;SDS011;32313;48.722;9.362;2022-11-27T09:59:42;21.57;;;19.37;;
46589;SDS011;32313;48.722;9.362;2022-11-27T10:02:27;24.47;;;21.93;;
46589;SDS011;32313;48.722;9.362;2022-11-27T10:04:54;23.43;;;21.00;;
46589;SDS011;32313;48.722;9.362;2022-11-27T10:10:30;24.43;;;21.93;;
46589;SDS011;32313;48.722;9.362;2022-11-27T10:18:50;23.07;;;20.77;;
46589;SDS011;32313;48.722;9.362;2022-11-27T10:26:49;22.20;;;19.97;;
46589;SDS011;32313;48.722;9.362;2022-11-27T10:32:15;20.60;;;18.77;;
46589;SDS011;32313;48.722;9.362;2022-11-27T10:34:44;18.67;;;16.93;;
46589;SDS011;32313;48.722;9.362;2022-11-27T10:45:06;19.57;;;17.77;;
46589;SDS011;32313;48.722;9.362;2022-11-27T10:47:42;19.80;;;18.00;;
46589;SDS011;32313;48.722;9.362;2022-11-27T10:50:17;19.10;;;17.20;;
46589;SDS011;32313;48.722;9.362;2022-11-27T10:52:54;18.27;;;16.63;;
46589;SDS011;32313;48.722;9.362;2022-11-27T10:56:12;17.87;;;16.23;;
46589;SDS011;32313;48.722;9.362;2022-11-27T10:58:24;17.60;;;16.10;;
46589;SDS011;32313;48.722;9.362;2022-11-27T11:01:09;16.73;;;15.23;;
46589;SDS011;32313;48.722;9.362;2022-11-27T11:03:37;16.43;;;14.93;;
46589;SDS011;32313;48.722;9.362;2022-11-27T11:06:04;15.87;;;14.50;;
46589;SDS011;32313;48.722;9.362;2022-11-27T11:08:32;16.63;;;15.17;;
46589;SDS011;32313;48.722;9.362;2022-11-27T11:13:28;17.33;;;16.00;;
46589;SDS011;32313;48.722;9.362;2022-11-27T11:18:43;16.20;;;14.80;;
46589;SDS011;32313;48.722;9.362;2022-11-27T11:21:36;14.97;;;13.57;;
46589;SDS011;32313;48.722;9.362;2022-11-27T11:24:03;14.43;;;13.17;;
46589;SDS011;32313;48.722;9.362;2022-11-27T11:26:30;14.90;;;13.70;;
46589;SDS011;32313;48.722;9.362;2022-11-27T11:34:33;12.67;;;11.63;;
46589;SDS011;32313;48.722;9.362;2022-11-27T11:37:15;13.67;;;12.57;;
46589;SDS011;32313;48.722;9.362;2022-11-27T11:39:46;13.47;;;12.23;;
46589;SDS011;32313;48.722;9.362;2022-11-27T11:42:20;11.77;;;10.87;;
46589;SDS011;32313;48.722;9.362;2022-11-27T11:44:52;12.53;;;11.47;;
46589;SDS011;32313;48.722;9.362;2022-11-27T11:47:20;12.63;;;11.57;;
46589;SDS011;32313;48.722;9.362;2022-11-27T11:49:51;12.97;;;11.97;;
46589;SDS011;32313;48.722;9.362;2022-11-27T11:52:25;11.63;;;10.73;;
46589;SDS011;32313;48.722;9.362;2022-11-27T11:55:15;12.33;;;11.33;;
46589;SDS011;32313;48.722;9.362;2022-11-27T12:00:48;14.07;;;12.87;;
46589;SDS011;32313;48.722;9.362;2022-11-27T12:16:55;13.53;;;12.23;;
46589;SDS011;32313;48.722;9.362;2022-11-27T12:22:43;13.20;;;12.10;;
46589;SDS011;32313;48.722;9.362;2022-11-27T12:25:21;12.23;;;11.13;;
46589;SDS011;32313;48.722;9.362;2022-11-27T12:31:00;12.07;;;10.90;;
46589;SDS011;32313;48.722;9.362;2022-11-27T12:42:23;12.10;;;11.00;;
46589;SDS011;32313;48.722;9.362;2022-11-27T12:47:41;10.10;;;9.27;;
46589;SDS011;32313;48.722;9.362;2022-11-27T12:53:13;9.93;;;9.13;;
46589;SDS011;32313;48.722;9.362;2022-11-27T12:55:51;11.13;;;10.23;;
46589;SDS011;32313;48.722;9.362;2022-11-27T12:58:27;10.87;;;9.87;;
46589;SDS011;32313;48.722;9.362;2022-11-27T13:01:02;10.60;;;9.67;;
46589;SDS011;32313;48.722;9.362;2022-11-27T13:03:36;9.70;;;8.77;;
46589;SDS011;32313;48.722;9.362;2022-11-27T13:09:50;10.43;;;9.50;;
46589;SDS011;32313;48.722;9.362;2022-11-27T13:12:58;11.83;;;10.67;;
46589;SDS011;32313;48.722;9.362;2022-11-27T13:15:45;11.33;;;10.23;;
46589;SDS011;32313;48.722;9.362;2022-11-27T13:18:18;11.17;;;10.17;;
46589;SDS011;32313;48.722;9.362;2022-11-27T13:20:50;11.53;;;10.43;;
46589;SDS011;32313;48.722;9.362;2022-11-27T13:23:17;10.57;;;9.63;;
46589;SDS011;32313;48.722;9.362;2022-11-27T13:25:47;11.87;;;9.43;;
46589;SDS011;32313;48.722;9.362;2022-11-27T13:28:18;12.10;;;10.97;;
46589;SDS011;32313;48.722;9.362;2022-11-27T13:30:48;12.07;;;10.87;;
46589;SDS011;32313;48.722;9.362;2022-11-27T13:33:22;10.40;;;9.40;;
46589;SDS011;32313;48.722;9.362;2022-11-27T13:36:00;11.20;;;10.20;;
46589;SDS011;32313;48.722;9.362;2022-11-27T13:38:28;10.87;;;9.87;;
46589;SDS011;32313;48.722;9.362;2022-11-27T13:40:58;11.70;;;10.60;;
46589;SDS011;32313;48.722;9.362;2022-11-27T13:43:42;10.23;;;9.33;;
46589;SDS011;32313;48.722;9.362;2022-11-27T13:46:12;11.40;;;10.40;;
46589;SDS011;32313;48.722;9.362;2022-11-27T13:48:58;10.93;;;9.93;;
46589;SDS011;32313;48.722;9.362;2022-11-27T13:51:28;12.63;;;11.33;;
46589;SDS011;32313;48.722;9.362;2022-11-27T13:54:09;11.10;;;10.17;;
46589;SDS011;32313;48.722;9.362;2022-11-27T13:56:45;10.90;;;9.90;;
46589;SDS011;32313;48.722;9.362;2022-11-27T13:59:15;10.83;;;9.87;;
46589;SDS011;32313;48.722;9.362;2022-11-27T14:04:27;10.13;;;9.20;;
46589;SDS011;32313;48.722;9.362;2022-11-27T14:09:39;10.40;;;9.50;;
46589;SDS011;32313;48.722;9.362;2022-11-27T14:12:12;12.33;;;11.00;;
46589;SDS011;32313;48.722;9.362;2022-11-27T14:15:06;11.07;;;9.97;;
46589;SDS011;32313;48.722;9.362;2022-11-27T14:17:46;11.70;;;10.50;;
46589;SDS011;32313;48.722;9.362;2022-11-27T14:22:49;10.13;;;8.87;;
46589;SDS011;32313;48.722;9.362;2022-11-27T14:28:14;11.17;;;10.17;;
46589;SDS011;32313;48.722;9.362;2022-11-27T14:33:16;11.47;;;10.43;;
46589;SDS011;32313;48.722;9.362;2022-11-27T14:35:46;10.83;;;9.70;;
46589;SDS011;32313;48.722;9.362;2022-11-27T14:38:16;10.00;;;9.20;;
46589;SDS011;32313;48.722;9.362;2022-11-27T14:40:42;9.90;;;9.10;;
46589;SDS011;32313;48.722;9.362;2022-11-27T14:43:15;9.57;;;8.70;;
46589;SDS011;32313;48.722;9.362;2022-11-27T14:45:50;8.27;;;7.57;;
46589;SDS011;32313;48.722;9.362;2022-11-27T14:48:25;9.43;;;8.43;;
46589;SDS011;32313;48.722;9.362;2022-11-27T14:50:54;9.23;;;8.30;;
46589;SDS011;32313;48.722;9.362;2022-11-27T14:53:21;9.93;;;8.27;;
46589;SDS011;32313;48.722;9.362;2022-11-27T14:55:49;8.20;;;7.37;;
46589;SDS011;32313;48.722;9.362;2022-11-27T14:58:19;8.47;;;7.53;;
46589;SDS011;32313;48.722;9.362;2022-11-27T15:01:02;9.60;;;8.60;;
46589;SDS011;32313;48.722;9.362;2022-11-27T15:03:30;8.77;;;7.93;;
46589;SDS011;32313;48.722;9.362;2022-11-27T15:06:00;8.97;;;8.13;;
46589;SDS011;32313;48.722;9.362;2022-11-27T15:08:28;9.97;;;8.97;;
46589;SDS011;32313;48.722;9.362;2022-11-27T15:10:58;9.07;;;8.27;;
46589;SDS011;32313;48.722;9.362;2022-11-27T15:13:30;9.67;;;8.87;;
46589;SDS011;32313;48.722;9.362;2022-11-27T15:16:20;9.77;;;8.87;;
46589;SDS011;32313;48.722;9.362;2022-11-27T15:18:47;9.77;;;8.77;;
46589;SDS011;32313;48.722;9.362;2022-11-27T15:21:26;9.83;;;9.03;;
46589;SDS011;32313;48.722;9.362;2022-11-27T15:23:53;9.13;;;8.33;;
46589;SDS011;32313;48.722;9.362;2022-11-27T15:26:36;9.80;;;8.90;;
46589;SDS011;32313;48.722;9.362;2022-11-27T15:32:25;10.37;;;9.37;;
46589;SDS011;32313;48.722;9.362;2022-11-27T15:34:50;10.37;;;9.37;;
46589;SDS011;32313;48.722;9.362;2022-11-27T15:39:52;10.17;;;9.23;;
46589;SDS011;32313;48.722;9.362;2022-11-27T15:42:20;11.13;;;10.13;;
46589;SDS011;32313;48.722;9.362;2022-11-27T15:44:47;9.90;;;9.00;;
46589;SDS011;32313;48.722;9.362;2022-11-27T15:49:56;11.00;;;10.00;;
46589;SDS011;32313;48.722;9.362;2022-11-27T15:52:23;12.47;;;11.27;;
46589;SDS011;32313;48.722;9.362;2022-11-27T15:54:49;11.47;;;10.43;;
46589;SDS011;32313;48.722;9.362;2022-11-27T15:57:16;10.73;;;9.63;;
46589;SDS011;32313;48.722;9.362;2022-11-27T15:59:41;10.83;;;9.93;;
46589;SDS011;32313;48.722;9.362;2022-11-27T16:02:08;10.70;;;9.70;;
46589;SDS011;32313;48.722;9.362;2022-11-27T16:04:35;11.70;;;10.70;;
46589;SDS011;32313;48.722;9.362;2022-11-27T16:07:01;12.87;;;11.57;;
46589;SDS011;32313;48.722;9.362;2022-11-27T16:09:26;11.27;;;10.17;;
46589;SDS011;32313;48.722;9.362;2022-11-27T16:11:52;12.77;;;11.63;;
46589;SDS011;32313;48.722;9.362;2022-11-27T16:14:18;12.27;;;11.07;;
46589;SDS011;32313;48.722;9.362;2022-11-27T16:16:44;13.07;;;11.77;;
46589;SDS011;32313;48.722;9.362;2022-11-27T16:19:09;13.10;;;11.90;;
46589;SDS011;32313;48.722;9.362;2022-11-27T16:21:36;12.97;;;11.77;;
46589;SDS011;32313;48.722;9.362;2022-11-27T16:24:03;14.47;;;13.00;;
46589;SDS011;32313;48.722;9.362;2022-11-27T16:26:33;13.20;;;11.90;;
46589;SDS011;32313;48.722;9.362;2022-11-27T16:29:00;13.10;;;11.90;;
46589;SDS011;32313;48.722;9.362;2022-11-27T16:31:26;13.87;;;12.57;;
46589;SDS011;32313;48.722;9.362;2022-11-27T16:33:52;14.80;;;13.40;;
46589;SDS011;32313;48.722;9.362;2022-11-27T16:36:20;15.00;;;13.60;;
46589;SDS011;32313;48.722;9.362;2022-11-27T16:38:46;14.17;;;12.87;;
46589;SDS011;32313;48.722;9.362;2022-11-27T16:41:14;14.67;;;13.37;;
46589;SDS011;32313;48.722;9.362;2022-11-27T16:43:43;14.77;;;13.37;;
46589;SDS011;32313;48.722;9.362;2022-11-27T16:46:12;14.30;;;13.00;;
46589;SDS011;32313;48.722;9.362;2022-11-27T16:48:43;15.63;;;14.13;;
46589;SDS011;32313;48.722;9.362;2022-11-27T16:53:40;13.80;;;12.50;;